EGPI/ILY METAR and TAF weather

Enter ICAO airport designator
Station Type Date Time Source
EGPI METAR 2023/02/05 14:20 UTC NOAA

EGPI 051420Z 20004KT 150V240 9999 FEW025 07/01 Q1042


Station Type Date Time Source
EGPI Decoded METAR 2023/02/05 14:20 UTC NOAA

Islay, United Kingdom (EGPI) 55-40-55N 006-15-24W
Feb 05, 2023 - 09:20 AM EST / 2023.02.05 1420 UTC
Wind: from the SSW (200 degrees) at 5 MPH (4 KT) (direction variable):0
Visibility: greater than 7 mile(s):0
Sky conditions: mostly clear
Temperature: 44 F (7 C)
Dew Point: 33 F (1 C)
Relative Humidity: 65%
Pressure (altimeter): 30.77 in. Hg (1042 hPa)
ob: EGPI 051420Z 20004KT 150V240 9999 FEW025 07/01 Q1042
cycle: 14

Station Type Date Time Source
EGPI TAF UTC NOAA

Error!

Example: see airport list